PWSweather.com
Personal Weather Stations
Station Observations
MART18
Seleziona Stato..., MartinsicuroIT italia

Seleziona Stato...MartinsicuroIT italia

Lat: 42.885169, Lon: 13.918447300000025

Elevation: 3

Station Type: Davis vantage vp2

Latest ConditionsUpdated 11:56:01 AM GMT+01:01 Wednesday, Nov 21, 2018
Currently Today's Max Today's Min Today's Average
Temperature 53.6°F12.0°C 53.8°F12.1°C 48.2°F9.0°C 49.9°F9.9°C
Dew Point 46.9°F8.3°C 46.9°F8.3°C 43.0°F6.1°C 44.3°F6.8°C
Winds 4.0 mph ENE6.4 kmh ENE 4.9 mph -7.9 kmh - - 2.3 mph 3.7 kmh
Wind Gusts 6.0 mph9.7 kmh 13.0 mph20.9 kmh - -
Humidity 78% 84% 76% 81%
Pressure 29.91 in1012.9 mb 29.92 in1013.2 mb 29.77 in1008.1 mb -
Hour Temp Dew Point Humidity Winds Wind Gusts Pressure Precip Precip Rate Daily Precip Total
11:56 AM 53.6°F12.0°C 46.9°F8.3°C 78% 4.0 mph ENE6.4 kmh ENE 6.0 mph9.7 kmh 29.91 in1012.9 mb 0.00 in0.0 mm 0.00 in0.0 mm 0.00 in0.0 mm
11:50 AM 53.4°F11.9°C 46.8°F8.2°C 78% 4.0 mph NNE6.4 kmh NNE 6.9 mph11.1 kmh 29.91 in1012.9 mb 0.00 in0.0 mm 0.00 in0.0 mm 0.00 in0.0 mm
11:45 AM 53.4°F11.9°C 46.8°F8.2°C 78% 2.9 mph NE4.7 kmh NE 6.0 mph9.7 kmh 29.91 in1012.9 mb 0.00 in0.0 mm 0.00 in0.0 mm 0.00 in0.0 mm
11:40 AM 53.4°F11.9°C 46.8°F8.2°C 78% 4.0 mph NE6.4 kmh NE 6.0 mph9.7 kmh 29.91 in1012.9 mb 0.00 in0.0 mm 0.00 in0.0 mm 0.00 in0.0 mm
11:35 AM 53.2°F11.8°C 46.6°F8.1°C 78% 4.0 mph NE6.4 kmh NE 8.1 mph13.0 kmh 29.91 in1012.9 mb 0.00 in0.0 mm 0.00 in0.0 mm 0.00 in0.0 mm
11:30 AM 53.2°F11.8°C 46.6°F8.1°C 78% 4.0 mph NE6.4 kmh NE 6.9 mph11.1 kmh 29.91 in1012.9 mb 0.00 in0.0 mm 0.00 in0.0 mm 0.00 in0.0 mm
11:25 AM 53.1°F11.7°C 46.4°F8.0°C 78% 4.0 mph NE6.4 kmh NE 6.0 mph9.7 kmh 29.91 in1012.9 mb 0.00 in0.0 mm 0.00 in0.0 mm 0.00 in0.0 mm
11:20 AM 53.2°F11.8°C 46.6°F8.1°C 78% 4.0 mph NE6.4 kmh NE 8.1 mph13.0 kmh 29.91 in1012.9 mb 0.00 in0.0 mm 0.00 in0.0 mm 0.00 in0.0 mm
11:15 AM 53.2°F11.8°C 46.6°F8.1°C 78% 4.0 mph NE6.4 kmh NE 6.0 mph9.7 kmh 29.91 in1012.9 mb 0.00 in0.0 mm 0.00 in0.0 mm 0.00 in0.0 mm
11:10 AM 53.1°F11.7°C 46.4°F8.0°C 78% 4.0 mph ENE6.4 kmh ENE 8.1 mph13.0 kmh 29.91 in1012.9 mb 0.00 in0.0 mm 0.00 in0.0 mm 0.00 in0.0 mm
11:05 AM 53.2°F11.8°C 46.6°F8.1°C 78% 4.0 mph NNE6.4 kmh NNE 4.9 mph7.9 kmh 29.91 in1012.9 mb 0.00 in0.0 mm 0.00 in0.0 mm 0.00 in0.0 mm
11:04 AM -- -- - - N N -- -- 0.00 in0.0 mm 0.00 in0.0 mm 0.00 in0.0 mm
11:00 AM 53.2°F11.8°C 46.6°F8.1°C 78% 4.0 mph NNE6.4 kmh NNE 6.0 mph9.7 kmh 29.91 in1012.9 mb 0.00 in0.0 mm 0.00 in0.0 mm 0.00 in0.0 mm
10:55 AM 53.1°F11.7°C 46.4°F8.0°C 78% 4.9 mph NNE7.9 kmh NNE 8.1 mph13.0 kmh 29.92 in1013.2 mb 0.00 in0.0 mm 0.00 in0.0 mm 0.00 in0.0 mm
10:50 AM 53.1°F11.7°C 46.4°F8.0°C 78% 4.0 mph NNE6.4 kmh NNE 6.9 mph11.1 kmh 29.91 in1012.9 mb 0.00 in0.0 mm 0.00 in0.0 mm 0.00 in0.0 mm
10:45 AM 53.2°F11.8°C 46.2°F7.9°C 77% 2.9 mph NE4.7 kmh NE 2.9 mph4.7 kmh 29.92 in1013.2 mb 0.00 in0.0 mm 0.00 in0.0 mm 0.00 in0.0 mm
10:36 AM 53.8°F12.1°C 46.8°F8.2°C 77% 2.9 mph ENE4.7 kmh ENE 6.0 mph9.7 kmh 29.92 in1013.2 mb 0.00 in0.0 mm 0.00 in0.0 mm 0.00 in0.0 mm
10:31 AM 53.8°F12.1°C 46.4°F8.0°C 76% 2.9 mph N4.7 kmh N 4.9 mph7.9 kmh 29.91 in1012.9 mb 0.00 in0.0 mm 0.00 in0.0 mm 0.00 in0.0 mm
10:26 AM 53.8°F12.1°C 46.8°F8.2°C 77% 2.9 mph N4.7 kmh N 6.0 mph9.7 kmh 29.92 in1013.2 mb 0.00 in0.0 mm 0.00 in0.0 mm 0.00 in0.0 mm
10:21 AM 53.8°F12.1°C 46.8°F8.2°C 77% 2.9 mph WNW4.7 kmh WNW 6.9 mph11.1 kmh 29.92 in1013.2 mb 0.00 in0.0 mm 0.00 in0.0 mm 0.00 in0.0 mm
10:16 AM 53.4°F11.9°C 46.4°F8.0°C 77% 2.9 mph NNW4.7 kmh NNW 6.0 mph9.7 kmh 29.91 in1012.9 mb 0.00 in0.0 mm 0.00 in0.0 mm 0.00 in0.0 mm
10:11 AM 53.4°F11.9°C 46.4°F8.0°C 77% 2.9 mph NW4.7 kmh NW 6.9 mph11.1 kmh 29.91 in1012.9 mb 0.00 in0.0 mm 0.00 in0.0 mm 0.00 in0.0 mm
10:06 AM 53.2°F11.8°C 46.2°F7.9°C 77% 2.9 mph N4.7 kmh N 4.9 mph7.9 kmh 29.91 in1012.9 mb 0.00 in0.0 mm 0.00 in0.0 mm 0.00 in0.0 mm
10:01 AM 53.1°F11.7°C 46.0°F7.8°C 77% 2.9 mph NW4.7 kmh NW 4.9 mph7.9 kmh 29.92 in1013.2 mb 0.00 in0.0 mm 0.00 in0.0 mm 0.00 in0.0 mm
09:56 AM 52.9°F11.6°C 45.9°F7.7°C 77% 2.9 mph WNW4.7 kmh WNW 8.1 mph13.0 kmh 29.92 in1013.2 mb 0.00 in0.0 mm 0.00 in0.0 mm 0.00 in0.0 mm
09:51 AM 52.9°F11.6°C 46.2°F7.9°C 78% 2.0 mph W3.2 kmh W 7.0 mph11.3 kmh 29.92 in1013.2 mb 0.00 in0.0 mm 0.00 in0.0 mm 0.00 in0.0 mm
09:46 AM 52.5°F11.4°C 45.9°F7.7°C 78% 2.9 mph NW4.7 kmh NW 4.9 mph7.9 kmh 29.91 in1012.9 mb 0.00 in0.0 mm 0.00 in0.0 mm 0.00 in0.0 mm
09:41 AM 52.3°F11.3°C 45.7°F7.6°C 78% 2.9 mph NNW4.7 kmh NNW 6.0 mph9.7 kmh 29.92 in1013.2 mb 0.00 in0.0 mm 0.00 in0.0 mm 0.00 in0.0 mm
09:36 AM 52.3°F11.3°C 46.0°F7.8°C 79% 2.9 mph WNW4.7 kmh WNW 6.9 mph11.1 kmh 29.92 in1013.2 mb 0.00 in0.0 mm 0.00 in0.0 mm 0.00 in0.0 mm
09:31 AM 52.2°F11.2°C 45.9°F7.7°C 79% 2.9 mph WNW4.7 kmh WNW 6.0 mph9.7 kmh 29.91 in1012.9 mb 0.00 in0.0 mm 0.00 in0.0 mm 0.00 in0.0 mm
09:26 AM 52.0°F11.1°C 45.7°F7.6°C 79% 4.0 mph W6.4 kmh W 6.9 mph11.1 kmh 29.91 in1012.9 mb 0.00 in0.0 mm 0.00 in0.0 mm 0.00 in0.0 mm
09:21 AM 51.8°F11.0°C 45.5°F7.5°C 79% 2.9 mph W4.7 kmh W 8.1 mph13.0 kmh 29.91 in1012.9 mb 0.00 in0.0 mm 0.00 in0.0 mm 0.00 in0.0 mm
09:16 AM 52.0°F11.1°C 46.0°F7.8°C 80% 2.0 mph WNW3.2 kmh WNW 4.9 mph7.9 kmh 29.91 in1012.9 mb 0.00 in0.0 mm 0.00 in0.0 mm 0.00 in0.0 mm
09:11 AM 51.6°F10.9°C 45.7°F7.6°C 80% 2.0 mph NNW3.2 kmh NNW 4.9 mph7.9 kmh 29.92 in1013.2 mb 0.00 in0.0 mm 0.00 in0.0 mm 0.00 in0.0 mm
09:06 AM 51.4°F10.8°C 45.5°F7.5°C 80% 2.0 mph N3.2 kmh N 5.0 mph8.0 kmh 29.91 in1012.9 mb 0.00 in0.0 mm 0.00 in0.0 mm 0.00 in0.0 mm
09:01 AM 51.4°F10.8°C 45.9°F7.7°C 81% 0.9 mph NW1.4 kmh NW 5.0 mph8.0 kmh 29.91 in1012.9 mb 0.00 in0.0 mm 0.00 in0.0 mm 0.00 in0.0 mm
08:56 AM 51.3°F10.7°C 45.7°F7.6°C 81% Calm Calm 4.0 mph6.4 kmh 29.91 in1012.9 mb 0.00 in0.0 mm 0.00 in0.0 mm 0.00 in0.0 mm
08:51 AM 51.1°F10.6°C 45.9°F7.7°C 82% Calm Calm 2.0 mph3.2 kmh 29.91 in1012.9 mb 0.00 in0.0 mm 0.00 in0.0 mm 0.00 in0.0 mm
08:46 AM 50.7°F10.4°C 45.1°F7.3°C 81% 0.9 mph WNW1.4 kmh WNW 4.0 mph6.4 kmh 29.91 in1012.9 mb 0.00 in0.0 mm 0.00 in0.0 mm 0.00 in0.0 mm
08:41 AM 50.4°F10.2°C 45.1°F7.3°C 82% Calm Calm 3.0 mph4.8 kmh 29.91 in1012.9 mb 0.00 in0.0 mm 0.00 in0.0 mm 0.00 in0.0 mm
08:36 AM 50.2°F10.1°C 45.0°F7.2°C 82% Calm Calm 2.0 mph3.2 kmh 29.91 in1012.9 mb 0.00 in0.0 mm 0.00 in0.0 mm 0.00 in0.0 mm
08:31 AM 50.0°F10.0°C 44.8°F7.1°C 82% Calm Calm 2.0 mph3.2 kmh 29.91 in1012.9 mb 0.00 in0.0 mm 0.00 in0.0 mm 0.00 in0.0 mm
08:26 AM 49.8°F9.9°C 44.6°F7.0°C 82% Calm Calm -- 29.91 in1012.9 mb 0.00 in0.0 mm 0.00 in0.0 mm 0.00 in0.0 mm
08:21 AM 49.6°F9.8°C 44.4°F6.9°C 82% Calm Calm 2.0 mph3.2 kmh 29.90 in1012.5 mb 0.00 in0.0 mm 0.00 in0.0 mm 0.00 in0.0 mm
08:16 AM 49.6°F9.8°C 44.4°F6.9°C 82% Calm Calm 2.9 mph4.7 kmh 29.90 in1012.5 mb 0.00 in0.0 mm 0.00 in0.0 mm 0.00 in0.0 mm
08:11 AM 49.6°F9.8°C 44.4°F6.9°C 82% Calm Calm 2.0 mph3.2 kmh 29.90 in1012.5 mb 0.00 in0.0 mm 0.00 in0.0 mm 0.00 in0.0 mm
08:06 AM 49.5°F9.7°C 44.2°F6.8°C 82% Calm Calm 2.9 mph4.7 kmh 29.90 in1012.5 mb 0.00 in0.0 mm 0.00 in0.0 mm 0.00 in0.0 mm
08:01 AM 49.5°F9.7°C 44.2°F6.8°C 82% Calm Calm 3.0 mph4.8 kmh 29.90 in1012.5 mb 0.00 in0.0 mm 0.00 in0.0 mm 0.00 in0.0 mm
07:56 AM 49.5°F9.7°C 44.2°F6.8°C 82% Calm Calm 2.0 mph3.2 kmh 29.90 in1012.5 mb 0.00 in0.0 mm 0.00 in0.0 mm 0.00 in0.0 mm
07:51 AM 49.5°F9.7°C 44.2°F6.8°C 82% 0.9 mph N1.4 kmh N 2.9 mph4.7 kmh 29.90 in1012.5 mb 0.00 in0.0 mm 0.00 in0.0 mm 0.00 in0.0 mm
07:46 AM 49.3°F9.6°C 44.1°F6.7°C 82% 0.9 mph N1.4 kmh N 5.0 mph8.0 kmh 29.90 in1012.5 mb 0.00 in0.0 mm 0.00 in0.0 mm 0.00 in0.0 mm
07:41 AM 49.3°F9.6°C 44.1°F6.7°C 82% 0.9 mph 1.4 kmh 5.0 mph8.0 kmh 29.89 in1012.2 mb 0.00 in0.0 mm 0.00 in0.0 mm 0.00 in0.0 mm
07:36 AM 49.3°F9.6°C 44.1°F6.7°C 82% 0.9 mph NNW1.4 kmh NNW 4.0 mph6.4 kmh 29.89 in1012.2 mb 0.00 in0.0 mm 0.00 in0.0 mm 0.00 in0.0 mm
07:31 AM 49.3°F9.6°C 44.1°F6.7°C 82% 0.9 mph NW1.4 kmh NW 4.0 mph6.4 kmh 29.89 in1012.2 mb 0.00 in0.0 mm 0.00 in0.0 mm 0.00 in0.0 mm
07:26 AM 49.3°F9.6°C 43.7°F6.5°C 81% 0.9 mph W1.4 kmh W 4.0 mph6.4 kmh 29.89 in1012.2 mb 0.00 in0.0 mm 0.00 in0.0 mm 0.00 in0.0 mm
07:21 AM 49.3°F9.6°C 43.7°F6.5°C 81% 0.9 mph WNW1.4 kmh WNW 4.0 mph6.4 kmh 29.89 in1012.2 mb 0.00 in0.0 mm 0.00 in0.0 mm 0.00 in0.0 mm
07:16 AM 49.3°F9.6°C 43.7°F6.5°C 81% 0.9 mph WNW1.4 kmh WNW 2.9 mph4.7 kmh 29.88 in1011.9 mb 0.00 in0.0 mm 0.00 in0.0 mm 0.00 in0.0 mm
07:11 AM 49.3°F9.6°C 43.7°F6.5°C 81% 2.0 mph NW3.2 kmh NW 6.0 mph9.7 kmh 29.88 in1011.9 mb 0.00 in0.0 mm 0.00 in0.0 mm 0.00 in0.0 mm
07:06 AM 49.3°F9.6°C 43.7°F6.5°C 81% 0.9 mph NW1.4 kmh NW 4.0 mph6.4 kmh 29.88 in1011.9 mb 0.00 in0.0 mm 0.00 in0.0 mm 0.00 in0.0 mm
07:01 AM 49.3°F9.6°C 43.7°F6.5°C 81% 2.0 mph NW3.2 kmh NW 4.0 mph6.4 kmh 29.88 in1011.9 mb 0.00 in0.0 mm 0.00 in0.0 mm 0.00 in0.0 mm
06:56 AM 49.3°F9.6°C 43.7°F6.5°C 81% 0.9 mph W1.4 kmh W 7.0 mph11.3 kmh 29.88 in1011.9 mb 0.00 in0.0 mm 0.00 in0.0 mm 0.00 in0.0 mm
06:51 AM 49.3°F9.6°C 43.7°F6.5°C 81% 0.9 mph WNW1.4 kmh WNW 7.0 mph11.3 kmh 29.88 in1011.9 mb 0.00 in0.0 mm 0.00 in0.0 mm 0.00 in0.0 mm
06:46 AM 49.3°F9.6°C 43.7°F6.5°C 81% 0.9 mph NW1.4 kmh NW 2.9 mph4.7 kmh 29.88 in1011.9 mb 0.00 in0.0 mm 0.00 in0.0 mm 0.00 in0.0 mm
06:41 AM 49.1°F9.5°C 43.5°F6.4°C 81% 0.9 mph NW1.4 kmh NW 4.0 mph6.4 kmh 29.88 in1011.9 mb 0.00 in0.0 mm 0.00 in0.0 mm 0.00 in0.0 mm
06:36 AM 49.1°F9.5°C 43.5°F6.4°C 81% 0.9 mph W1.4 kmh W 2.9 mph4.7 kmh 29.88 in1011.9 mb 0.00 in0.0 mm 0.00 in0.0 mm 0.00 in0.0 mm
06:31 AM 48.9°F9.4°C 43.3°F6.3°C 81% 0.9 mph W1.4 kmh W 6.0 mph9.7 kmh 29.88 in1011.9 mb 0.00 in0.0 mm 0.00 in0.0 mm 0.00 in0.0 mm
06:26 AM 48.9°F9.4°C 43.3°F6.3°C 81% 0.9 mph NW1.4 kmh NW 2.9 mph4.7 kmh 29.88 in1011.9 mb 0.00 in0.0 mm 0.00 in0.0 mm 0.00 in0.0 mm
06:21 AM 48.9°F9.4°C 43.3°F6.3°C 81% Calm Calm 2.9 mph4.7 kmh 29.88 in1011.9 mb 0.00 in0.0 mm 0.00 in0.0 mm 0.00 in0.0 mm
06:16 AM 48.9°F9.4°C 43.7°F6.5°C 82% 0.9 mph W1.4 kmh W 2.9 mph4.7 kmh 29.87 in1011.5 mb 0.00 in0.0 mm 0.00 in0.0 mm 0.00 in0.0 mm
06:11 AM 48.9°F9.4°C 43.3°F6.3°C 81% 0.9 mph NW1.4 kmh NW 2.9 mph4.7 kmh 29.87 in1011.5 mb 0.00 in0.0 mm 0.00 in0.0 mm 0.00 in0.0 mm
06:06 AM 48.9°F9.4°C 43.3°F6.3°C 81% 0.9 mph W1.4 kmh W 4.0 mph6.4 kmh 29.87 in1011.5 mb 0.00 in0.0 mm 0.00 in0.0 mm 0.00 in0.0 mm
06:01 AM 48.9°F9.4°C 43.3°F6.3°C 81% 0.9 mph NW1.4 kmh NW 2.9 mph4.7 kmh 29.87 in1011.5 mb 0.00 in0.0 mm 0.00 in0.0 mm 0.00 in0.0 mm
05:56 AM 48.9°F9.4°C 43.7°F6.5°C 82% 0.9 mph NW1.4 kmh NW 4.0 mph6.4 kmh 29.86 in1011.2 mb 0.00 in0.0 mm 0.00 in0.0 mm 0.00 in0.0 mm
05:51 AM 48.9°F9.4°C 43.7°F6.5°C 82% 0.9 mph NW1.4 kmh NW 2.9 mph4.7 kmh 29.86 in1011.2 mb 0.00 in0.0 mm 0.00 in0.0 mm 0.00 in0.0 mm
05:46 AM 48.7°F9.3°C 43.5°F6.4°C 82% 0.9 mph NW1.4 kmh NW 2.9 mph4.7 kmh 29.86 in1011.2 mb 0.00 in0.0 mm 0.00 in0.0 mm 0.00 in0.0 mm
05:41 AM 48.7°F9.3°C 43.5°F6.4°C 82% 0.9 mph WNW1.4 kmh WNW 2.9 mph4.7 kmh 29.86 in1011.2 mb 0.00 in0.0 mm 0.00 in0.0 mm 0.00 in0.0 mm
05:36 AM 48.7°F9.3°C 43.5°F6.4°C 82% 0.9 mph WNW1.4 kmh WNW 2.9 mph4.7 kmh 29.86 in1011.2 mb 0.00 in0.0 mm 0.00 in0.0 mm 0.00 in0.0 mm
05:31 AM 48.7°F9.3°C 43.5°F6.4°C 82% 0.9 mph WNW1.4 kmh WNW 2.0 mph3.2 kmh 29.86 in1011.2 mb 0.00 in0.0 mm 0.00 in0.0 mm 0.00 in0.0 mm
05:26 AM 48.7°F9.3°C 43.5°F6.4°C 82% 0.9 mph WNW1.4 kmh WNW 2.9 mph4.7 kmh 29.86 in1011.2 mb 0.00 in0.0 mm 0.00 in0.0 mm 0.00 in0.0 mm
05:21 AM 48.6°F9.2°C 43.3°F6.3°C 82% Calm Calm 2.9 mph4.7 kmh 29.86 in1011.2 mb 0.00 in0.0 mm 0.00 in0.0 mm 0.00 in0.0 mm
05:16 AM 48.6°F9.2°C 43.3°F6.3°C 82% 0.9 mph NW1.4 kmh NW 2.0 mph3.2 kmh 29.86 in1011.2 mb 0.00 in0.0 mm 0.00 in0.0 mm 0.00 in0.0 mm
05:11 AM 48.6°F9.2°C 43.3°F6.3°C 82% 0.9 mph NW1.4 kmh NW 4.0 mph6.4 kmh 29.86 in1011.2 mb 0.00 in0.0 mm 0.00 in0.0 mm 0.00 in0.0 mm
05:06 AM 48.6°F9.2°C 43.3°F6.3°C 82% Calm Calm 2.9 mph4.7 kmh 29.85 in1010.8 mb 0.00 in0.0 mm 0.00 in0.0 mm 0.00 in0.0 mm
05:01 AM 48.6°F9.2°C 43.3°F6.3°C 82% Calm Calm -- 29.85 in1010.8 mb 0.00 in0.0 mm 0.00 in0.0 mm 0.00 in0.0 mm
04:56 AM 48.6°F9.2°C 43.3°F6.3°C 82% Calm Calm 0.9 mph1.4 kmh 29.85 in1010.8 mb 0.00 in0.0 mm 0.00 in0.0 mm 0.00 in0.0 mm
04:51 AM 48.6°F9.2°C 43.3°F6.3°C 82% 0.9 mph WNW1.4 kmh WNW 2.0 mph3.2 kmh 29.85 in1010.8 mb 0.00 in0.0 mm 0.00 in0.0 mm 0.00 in0.0 mm
04:46 AM 48.4°F9.1°C 43.2°F6.2°C 82% 0.9 mph WNW1.4 kmh WNW 4.0 mph6.4 kmh 29.85 in1010.8 mb 0.00 in0.0 mm 0.00 in0.0 mm 0.00 in0.0 mm
04:41 AM 48.4°F9.1°C 43.2°F6.2°C 82% Calm Calm 2.0 mph3.2 kmh 29.84 in1010.5 mb 0.00 in0.0 mm 0.00 in0.0 mm 0.00 in0.0 mm
04:36 AM 48.4°F9.1°C 43.2°F6.2°C 82% Calm Calm 2.0 mph3.2 kmh 29.84 in1010.5 mb 0.00 in0.0 mm 0.00 in0.0 mm 0.00 in0.0 mm
04:31 AM 48.4°F9.1°C 43.2°F6.2°C 82% Calm Calm 2.0 mph3.2 kmh 29.84 in1010.5 mb 0.00 in0.0 mm 0.00 in0.0 mm 0.00 in0.0 mm
04:26 AM 48.4°F9.1°C 43.2°F6.2°C 82% Calm Calm 4.0 mph6.4 kmh 29.84 in1010.5 mb 0.00 in0.0 mm 0.00 in0.0 mm 0.00 in0.0 mm
04:21 AM 48.4°F9.1°C 43.2°F6.2°C 82% 0.9 mph NNW1.4 kmh NNW 7.0 mph11.3 kmh 29.83 in1010.2 mb 0.00 in0.0 mm 0.00 in0.0 mm 0.00 in0.0 mm
04:16 AM 48.4°F9.1°C 43.2°F6.2°C 82% 0.9 mph N1.4 kmh N 4.0 mph6.4 kmh 29.83 in1010.2 mb 0.00 in0.0 mm 0.00 in0.0 mm 0.00 in0.0 mm
04:11 AM 48.4°F9.1°C 43.2°F6.2°C 82% 0.9 mph N1.4 kmh N 6.0 mph9.7 kmh 29.83 in1010.2 mb 0.00 in0.0 mm 0.00 in0.0 mm 0.00 in0.0 mm
04:06 AM 48.4°F9.1°C 43.2°F6.2°C 82% 2.0 mph NW3.2 kmh NW 4.9 mph7.9 kmh 29.82 in1009.8 mb 0.00 in0.0 mm 0.00 in0.0 mm 0.00 in0.0 mm
04:01 AM 48.4°F9.1°C 43.2°F6.2°C 82% 2.0 mph WNW3.2 kmh WNW 4.9 mph7.9 kmh 29.82 in1009.8 mb 0.00 in0.0 mm 0.00 in0.0 mm 0.00 in0.0 mm
03:56 AM 48.4°F9.1°C 43.2°F6.2°C 82% 2.0 mph NW3.2 kmh NW 6.9 mph11.1 kmh 29.82 in1009.8 mb 0.00 in0.0 mm 0.00 in0.0 mm 0.00 in0.0 mm
03:51 AM 48.4°F9.1°C 43.2°F6.2°C 82% 2.0 mph W3.2 kmh W 6.0 mph9.7 kmh 29.82 in1009.8 mb 0.00 in0.0 mm 0.00 in0.0 mm 0.00 in0.0 mm
03:46 AM 48.4°F9.1°C 43.2°F6.2°C 82% 2.0 mph WNW3.2 kmh WNW 6.9 mph11.1 kmh 29.81 in1009.5 mb 0.00 in0.0 mm 0.00 in0.0 mm 0.00 in0.0 mm
03:41 AM 48.2°F9.0°C 43.0°F6.1°C 82% 2.9 mph N4.7 kmh N 7.0 mph11.3 kmh 29.81 in1009.5 mb 0.00 in0.0 mm 0.00 in0.0 mm 0.00 in0.0 mm
03:36 AM 48.4°F9.1°C 43.2°F6.2°C 82% 2.9 mph NW4.7 kmh NW 6.0 mph9.7 kmh 29.81 in1009.5 mb 0.00 in0.0 mm 0.00 in0.0 mm 0.00 in0.0 mm
03:31 AM 48.2°F9.0°C 43.0°F6.1°C 82% 2.9 mph N4.7 kmh N 6.0 mph9.7 kmh 29.81 in1009.5 mb 0.00 in0.0 mm 0.00 in0.0 mm 0.00 in0.0 mm
03:26 AM 48.2°F9.0°C 43.0°F6.1°C 82% 4.0 mph NW6.4 kmh NW 6.0 mph9.7 kmh 29.81 in1009.5 mb 0.00 in0.0 mm 0.00 in0.0 mm 0.00 in0.0 mm
03:21 AM 48.2°F9.0°C 43.0°F6.1°C 82% 4.0 mph NW6.4 kmh NW 8.9 mph14.3 kmh 29.81 in1009.5 mb 0.00 in0.0 mm 0.00 in0.0 mm 0.00 in0.0 mm
03:16 AM 48.2°F9.0°C 43.0°F6.1°C 82% 4.0 mph NW6.4 kmh NW 8.1 mph13.0 kmh 29.81 in1009.5 mb 0.00 in0.0 mm 0.00 in0.0 mm 0.00 in0.0 mm
03:11 AM 48.2°F9.0°C 43.0°F6.1°C 82% 4.0 mph WNW6.4 kmh WNW 8.9 mph14.3 kmh 29.81 in1009.5 mb 0.00 in0.0 mm 0.00 in0.0 mm 0.00 in0.0 mm
03:06 AM 48.4°F9.1°C 43.2°F6.2°C 82% 4.0 mph NW6.4 kmh NW 11.0 mph17.7 kmh 29.81 in1009.5 mb 0.00 in0.0 mm 0.00 in0.0 mm 0.00 in0.0 mm
03:01 AM 48.4°F9.1°C 43.2°F6.2°C 82% 4.0 mph NW6.4 kmh NW 11.0 mph17.7 kmh 29.80 in1009.1 mb 0.00 in0.0 mm 0.00 in0.0 mm 0.00 in0.0 mm
02:56 AM 48.4°F9.1°C 43.2°F6.2°C 82% 4.9 mph NW7.9 kmh NW 10.1 mph16.3 kmh 29.80 in1009.1 mb 0.00 in0.0 mm 0.00 in0.0 mm 0.00 in0.0 mm
02:51 AM 48.4°F9.1°C 43.2°F6.2°C 82% 4.0 mph NW6.4 kmh NW 10.1 mph16.3 kmh 29.80 in1009.1 mb 0.00 in0.0 mm 0.00 in0.0 mm 0.00 in0.0 mm
02:46 AM 48.4°F9.1°C 43.2°F6.2°C 82% 2.9 mph WNW4.7 kmh WNW 10.1 mph16.3 kmh 29.80 in1009.1 mb 0.00 in0.0 mm 0.00 in0.0 mm 0.00 in0.0 mm
02:41 AM 48.4°F9.1°C 43.2°F6.2°C 82% 4.0 mph N6.4 kmh N 6.9 mph11.1 kmh 29.80 in1009.1 mb 0.00 in0.0 mm 0.00 in0.0 mm 0.00 in0.0 mm
02:36 AM 48.4°F9.1°C 43.2°F6.2°C 82% 4.0 mph NNE6.4 kmh NNE 8.9 mph14.3 kmh 29.80 in1009.1 mb 0.00 in0.0 mm 0.00 in0.0 mm 0.00 in0.0 mm
02:31 AM 48.6°F9.2°C 43.3°F6.3°C 82% 4.0 mph WNW6.4 kmh WNW 8.9 mph14.3 kmh 29.80 in1009.1 mb 0.00 in0.0 mm 0.00 in0.0 mm 0.00 in0.0 mm
02:26 AM 48.4°F9.1°C 43.2°F6.2°C 82% 2.9 mph N4.7 kmh N 8.9 mph14.3 kmh 29.80 in1009.1 mb 0.00 in0.0 mm 0.00 in0.0 mm 0.00 in0.0 mm
02:21 AM 48.6°F9.2°C 43.3°F6.3°C 82% 2.9 mph WNW4.7 kmh WNW 10.1 mph16.3 kmh 29.80 in1009.1 mb 0.00 in0.0 mm 0.00 in0.0 mm 0.00 in0.0 mm
02:16 AM 48.6°F9.2°C 43.3°F6.3°C 82% 2.9 mph NW4.7 kmh NW 10.1 mph16.3 kmh 29.80 in1009.1 mb 0.00 in0.0 mm 0.00 in0.0 mm 0.00 in0.0 mm
02:11 AM 48.6°F9.2°C 43.3°F6.3°C 82% 4.0 mph W6.4 kmh W 10.1 mph16.3 kmh 29.80 in1009.1 mb 0.00 in0.0 mm 0.00 in0.0 mm 0.00 in0.0 mm
02:06 AM 48.6°F9.2°C 43.3°F6.3°C 82% 4.0 mph WNW6.4 kmh WNW 8.9 mph14.3 kmh 29.80 in1009.1 mb 0.00 in0.0 mm 0.00 in0.0 mm 0.00 in0.0 mm
02:01 AM 48.6°F9.2°C 43.3°F6.3°C 82% 4.0 mph NW6.4 kmh NW 10.1 mph16.3 kmh 29.80 in1009.1 mb 0.00 in0.0 mm 0.00 in0.0 mm 0.00 in0.0 mm
01:56 AM 48.6°F9.2°C 43.3°F6.3°C 82% 4.0 mph WNW6.4 kmh WNW 8.1 mph13.0 kmh 29.79 in1008.8 mb 0.00 in0.0 mm 0.00 in0.0 mm 0.00 in0.0 mm
01:51 AM 48.6°F9.2°C 43.3°F6.3°C 82% 4.0 mph WNW6.4 kmh WNW 13.0 mph20.9 kmh 29.79 in1008.8 mb 0.00 in0.0 mm 0.00 in0.0 mm 0.00 in0.0 mm
01:46 AM 48.6°F9.2°C 43.3°F6.3°C 82% 4.0 mph WNW6.4 kmh WNW 8.9 mph14.3 kmh 29.79 in1008.8 mb 0.00 in0.0 mm 0.00 in0.0 mm 0.00 in0.0 mm
01:41 AM 48.6°F9.2°C 43.3°F6.3°C 82% 4.0 mph W6.4 kmh W 8.9 mph14.3 kmh 29.79 in1008.8 mb 0.00 in0.0 mm 0.00 in0.0 mm 0.00 in0.0 mm
01:36 AM 48.6°F9.2°C 43.3°F6.3°C 82% 4.0 mph W6.4 kmh W 11.0 mph17.7 kmh 29.78 in1008.5 mb 0.00 in0.0 mm 0.00 in0.0 mm 0.00 in0.0 mm
01:31 AM 48.6°F9.2°C 43.3°F6.3°C 82% 4.0 mph NW6.4 kmh NW 8.1 mph13.0 kmh 29.78 in1008.5 mb 0.00 in0.0 mm 0.00 in0.0 mm 0.00 in0.0 mm
01:26 AM 48.6°F9.2°C 43.7°F6.5°C 83% 4.9 mph W7.9 kmh W 12.1 mph19.5 kmh 29.78 in1008.5 mb 0.00 in0.0 mm 0.00 in0.0 mm 0.00 in0.0 mm
01:21 AM 48.6°F9.2°C 43.7°F6.5°C 83% 4.9 mph W7.9 kmh W 10.1 mph16.3 kmh 29.78 in1008.5 mb 0.00 in0.0 mm 0.00 in0.0 mm 0.00 in0.0 mm
01:16 AM 48.6°F9.2°C 43.7°F6.5°C 83% 4.0 mph NW6.4 kmh NW 11.0 mph17.7 kmh 29.78 in1008.5 mb 0.00 in0.0 mm 0.00 in0.0 mm 0.00 in0.0 mm
01:11 AM 48.6°F9.2°C 43.7°F6.5°C 83% 4.0 mph W6.4 kmh W 8.9 mph14.3 kmh 29.78 in1008.5 mb 0.00 in0.0 mm 0.00 in0.0 mm 0.00 in0.0 mm
01:06 AM 48.6°F9.2°C 43.7°F6.5°C 83% 4.9 mph WNW7.9 kmh WNW 11.0 mph17.7 kmh 29.78 in1008.5 mb 0.00 in0.0 mm 0.00 in0.0 mm 0.00 in0.0 mm
01:01 AM 48.6°F9.2°C 43.7°F6.5°C 83% 4.9 mph NW7.9 kmh NW 8.9 mph14.3 kmh 29.78 in1008.5 mb 0.00 in0.0 mm 0.00 in0.0 mm 0.00 in0.0 mm
12:56 AM 48.6°F9.2°C 43.7°F6.5°C 83% 4.9 mph NW7.9 kmh NW 10.1 mph16.3 kmh 29.77 in1008.1 mb 0.00 in0.0 mm 0.00 in0.0 mm 0.00 in0.0 mm
12:51 AM 48.6°F9.2°C 43.7°F6.5°C 83% 4.9 mph NW7.9 kmh NW 12.1 mph19.5 kmh 29.77 in1008.1 mb 0.00 in0.0 mm 0.00 in0.0 mm 0.00 in0.0 mm
12:46 AM 48.6°F9.2°C 43.7°F6.5°C 83% 4.9 mph WNW7.9 kmh WNW 10.1 mph16.3 kmh 29.77 in1008.1 mb 0.00 in0.0 mm 0.00 in0.0 mm 0.00 in0.0 mm
12:41 AM 48.6°F9.2°C 43.7°F6.5°C 83% 4.9 mph WSW7.9 kmh WSW 11.0 mph17.7 kmh 29.77 in1008.1 mb 0.00 in0.0 mm 0.00 in0.0 mm 0.00 in0.0 mm
12:36 AM 48.7°F9.3°C 43.9°F6.6°C 83% 4.0 mph NNW6.4 kmh NNW 10.1 mph16.3 kmh 29.77 in1008.1 mb 0.00 in0.0 mm 0.00 in0.0 mm 0.00 in0.0 mm
12:31 AM 48.7°F9.3°C 43.9°F6.6°C 83% 4.0 mph WNW6.4 kmh WNW 11.0 mph17.7 kmh 29.77 in1008.1 mb 0.00 in0.0 mm 0.00 in0.0 mm 0.00 in0.0 mm
12:26 AM 48.7°F9.3°C 44.1°F6.7°C 84% 2.9 mph WNW4.7 kmh WNW 8.1 mph13.0 kmh 29.77 in1008.1 mb 0.00 in0.0 mm 0.00 in0.0 mm 0.00 in0.0 mm
12:21 AM 48.7°F9.3°C 44.1°F6.7°C 84% 2.9 mph NW4.7 kmh NW 10.1 mph16.3 kmh 29.77 in1008.1 mb 0.00 in0.0 mm 0.00 in0.0 mm 0.00 in0.0 mm
12:16 AM 48.7°F9.3°C 44.1°F6.7°C 84% 2.9 mph NNW4.7 kmh NNW 6.9 mph11.1 kmh 29.77 in1008.1 mb 0.00 in0.0 mm 0.00 in0.0 mm 0.00 in0.0 mm
12:11 AM 48.9°F9.4°C 44.2°F6.8°C 84% 2.0 mph WNW3.2 kmh WNW 6.9 mph11.1 kmh 29.77 in1008.1 mb 0.00 in0.0 mm 0.00 in0.0 mm 0.00 in0.0 mm
12:06 AM 48.9°F9.4°C 44.2°F6.8°C 84% 2.0 mph W3.2 kmh W 4.9 mph7.9 kmh 29.77 in1008.1 mb 0.00 in0.0 mm 0.00 in0.0 mm 0.00 in0.0 mm
12:01 AM 48.9°F9.4°C 44.2°F6.8°C 84% 2.0 mph WNW3.2 kmh WNW 8.1 mph13.0 kmh 29.77 in1008.1 mb 0.00 in0.0 mm 0.00 in0.0 mm 0.00 in0.0 mm